Time;durP1;ratioP1;P1;durP2;ratioP2;P2;SDS_P1;SDS_P2;PMS_P1;PMS_P2;Temp;Humidity;BMP_temperature;BMP_pressure;BME280_temperature;BME280_humidity;BME280_pressure;Samples;Min_cycle;Max_cycle;Signal;HPM_P1;HPM_P2
2022/09/16 09:31:48;;;;;;;1.80;1.08;;;26.50;98.00;;;;;;4868655;29;20056;-65
2022/09/16 09:34:39;;;;;;;1.30;1.20;;;26.60;98.60;;;;;;4860690;29;20117;-66
2022/09/16 09:37:36;;;;;;;1.35;1.13;;;26.70;98.10;;;;;;4864072;29;20383;-72
2022/09/16 09:40:22;;;;;;;1.40;1.27;;;26.80;99.20;;;;;;4870969;29;20079;-71
2022/09/16 09:43:32;;;;;;;1.30;1.13;;;26.80;97.60;;;;;;4850866;29;20041;-68
2022/09/16 09:46:09;;;;;;;1.10;1.00;;;27.10;98.60;;;;;;4843182;29;20524;-71
2022/09/16 09:48:43;;;;;;;1.23;1.13;;;27.40;98.30;;;;;;4849782;29;20033;-69
2022/09/16 09:51:31;;;;;;;1.08;1.00;;;28.00;99.40;;;;;;4846376;29;20395;-65
2022/09/16 09:54:03;;;;;;;0.88;0.80;;;28.20;97.00;;;;;;4859272;29;20014;-69
2022/09/16 09:56:32;;;;;;;1.10;0.98;;;28.10;96.10;;;;;;4860384;29;20030;-72
2022/09/16 09:59:09;;;;;;;1.48;1.00;;;27.80;95.30;;;;;;4862221;29;20037;-64
2022/09/16 10:01:35;;;;;;;1.27;1.15;;;27.50;95.00;;;;;;4860912;29;20091;-67
2022/09/16 10:04:01;;;;;;;1.30;1.17;;;27.30;95.50;;;;;;4860315;29;20094;-63
2022/09/16 10:06:32;;;;;;;1.10;1.00;;;27.10;95.60;;;;;;4861931;29;20491;-67
2022/09/16 10:08:58;;;;;;;1.85;0.90;;;27.00;97.00;;;;;;4856987;29;20033;-67
2022/09/16 10:11:27;;;;;;;1.10;1.00;;;27.10;98.30;;;;;;4859486;29;20022;-71
2022/09/16 10:13:56;;;;;;;1.27;1.17;;;26.90;98.40;;;;;;4858878;29;20032;-76
2022/09/16 10:16:26;;;;;;;3.33;1.80;;;26.80;98.10;;;;;;4860348;29;20033;-68
2022/09/16 10:19:05;;;;;;;1.23;1.13;;;26.30;97.50;;;;;;4836295;29;20030;-66
2022/09/16 10:21:48;;;;;;;1.73;1.10;;;26.20;99.90;;;;;;4855414;29;20414;-66
2022/09/16 10:24:27;;;;;;;0.90;0.90;;;26.40;99.50;;;;;;4854983;29;20450;-67
2022/09/16 10:26:53;;;;;;;1.70;1.60;;;26.40;99.60;;;;;;4842769;29;20373;-68
2022/09/16 10:29:19;;;;;;;1.30;1.20;;;26.40;98.00;;;;;;4854465;29;20124;-67
2022/09/16 10:31:48;;;;;;;2.40;1.50;;;26.30;99.20;;;;;;4848336;29;20477;-74
2022/09/16 10:34:33;;;;;;;2.17;2.08;;;26.40;99.60;;;;;;4857832;29;20527;-69
2022/09/16 10:37:12;;;;;;;1.90;1.67;;;26.30;98.50;;;;;;4879855;29;20475;-70
2022/09/16 10:39:42;;;;;;;2.10;2.00;;;26.20;99.10;;;;;;4838237;29;20034;-67
2022/09/16 10:42:25;;;;;;;1.35;1.25;;;26.30;99.50;;;;;;4843693;29;20042;-69
2022/09/16 10:45:02;;;;;;;2.20;1.83;;;26.20;99.40;;;;;;4862776;29;20117;-66
2022/09/16 10:47:30;;;;;;;1.42;1.33;;;26.20;99.60;;;;;;4876949;29;20029;-69
2022/09/16 10:50:03;;;;;;;1.73;1.45;;;26.20;99.20;;;;;;4875935;29;20495;-69
2022/09/16 10:52:43;;;;;;;1.45;1.35;;;26.00;99.90;;;;;;4877389;29;20128;-70
2022/09/16 10:55:35;;;;;;;2.65;1.67;;;26.10;99.80;;;;;;4874744;29;20029;-70
2022/09/16 10:58:17;;;;;;;2.80;1.95;;;26.40;99.90;;;;;;4860989;29;20366;-69
2022/09/16 11:00:54;;;;;;;1.50;1.40;;;27.00;98.70;;;;;;4856504;29;20839;-70
2022/09/16 11:03:55;;;;;;;1.80;1.70;;;27.20;98.30;;;;;;4857839;29;20637;-67
2022/09/16 11:06:44;;;;;;;1.55;1.45;;;27.70;99.30;;;;;;4854007;29;20144;-71
2022/09/16 11:09:47;;;;;;;2.15;1.13;;;28.10;96.70;;;;;;4857012;29;20033;-67
2022/09/16 11:12:30;;;;;;;1.88;1.55;;;28.40;96.10;;;;;;4852298;29;20498;-66
2022/09/16 11:15:13;;;;;;;1.27;1.00;;;28.60;93.70;;;;;;4859292;29;20381;-67
2022/09/16 11:17:55;;;;;;;1.75;1.10;;;28.10;93.00;;;;;;4871372;29;20116;-67
2022/09/16 11:20:39;;;;;;;1.45;1.10;;;28.60;95.20;;;;;;4858363;29;20033;-71
2022/09/16 11:23:20;;;;;;;0.80;0.80;;;28.90;94.50;;;;;;4857187;29;20772;-72
2022/09/16 11:26:40;;;;;;;1.50;1.20;;;29.40;92.50;;;;;;4860408;29;20161;-69
2022/09/16 11:29:43;;;;;;;2.92;1.30;;;29.70;92.10;;;;;;4801225;29;20031;-70
2022/09/16 11:32:25;;;;;;;1.55;1.00;;;29.80;94.20;;;;;;4858622;29;20148;-71
2022/09/16 11:34:51;;;;;;;1.27;1.05;;;29.70;89.90;;;;;;4857715;29;20036;-72
2022/09/16 11:37:24;;;;;;;3.10;1.13;;;29.50;89.20;;;;;;4862888;29;20029;-70
2022/09/16 11:40:06;;;;;;;1.35;0.80;;;29.40;88.40;;;;;;4862035;29;20044;-71
2022/09/16 11:42:42;;;;;;;1.30;0.90;;;29.30;90.10;;;;;;4879072;29;20119;-73
2022/09/16 11:45:20;;;;;;;1.33;1.00;;;29.40;91.30;;;;;;4872969;29;20695;-70
2022/09/16 11:47:55;;;;;;;1.20;0.90;;;29.80;94.10;;;;;;4878787;29;20033;-67
2022/09/16 11:51:05;;;;;;;1.58;1.05;;;30.10;90.90;;;;;;4879670;29;20514;-71
2022/09/16 11:54:04;;;;;;;1.13;1.00;;;30.40;90.00;;;;;;4805378;29;20039;-68
2022/09/16 11:56:42;;;;;;;0.80;0.80;;;30.70;90.40;;;;;;4806378;29;20113;-71
